sensor_id;sensor_type;location;lat;lon;timestamp;P1;durP1;ratioP1;P2;durP2;ratioP2
52041;SDS011;38052;45.944;13.624;2024-03-02T00:00:02;9.18;;;3.30;;
52041;SDS011;38052;45.944;13.624;2024-03-02T00:02:45;5.00;;;2.70;;
52041;SDS011;38052;45.944;13.624;2024-03-02T00:05:19;5.72;;;2.47;;
52041;SDS011;38052;45.944;13.624;2024-03-02T00:07:52;6.90;;;3.28;;
52041;SDS011;38052;45.944;13.624;2024-03-02T00:10:23;7.78;;;2.50;;
52041;SDS011;38052;45.944;13.624;2024-03-02T00:12:54;5.28;;;3.08;;
52041;SDS011;38052;45.944;13.624;2024-03-02T00:17:54;9.65;;;3.22;;
52041;SDS011;38052;45.944;13.624;2024-03-02T00:20:21;5.00;;;2.67;;
52041;SDS011;38052;45.944;13.624;2024-03-02T00:22:47;6.72;;;3.47;;
52041;SDS011;38052;45.944;13.624;2024-03-02T00:25:14;6.50;;;2.40;;
52041;SDS011;38052;45.944;13.624;2024-03-02T00:27:40;3.80;;;2.28;;
52041;SDS011;38052;45.944;13.624;2024-03-02T00:30:32;5.13;;;2.28;;
52041;SDS011;38052;45.944;13.624;2024-03-02T00:33:04;3.45;;;1.75;;
52041;SDS011;38052;45.944;13.624;2024-03-02T00:35:32;5.60;;;2.65;;
52041;SDS011;38052;45.944;13.624;2024-03-02T00:38:03;6.28;;;2.05;;
52041;SDS011;38052;45.944;13.624;2024-03-02T00:40:30;5.05;;;1.95;;
52041;SDS011;38052;45.944;13.624;2024-03-02T00:42:56;6.45;;;2.97;;
52041;SDS011;38052;45.944;13.624;2024-03-02T00:45:22;9.55;;;2.55;;
52041;SDS011;38052;45.944;13.624;2024-03-02T00:47:50;7.47;;;3.78;;
52041;SDS011;38052;45.944;13.624;2024-03-02T00:50:16;6.68;;;2.70;;
52041;SDS011;38052;45.944;13.624;2024-03-02T00:52:43;14.85;;;3.72;;
52041;SDS011;38052;45.944;13.624;2024-03-02T00:55:10;7.97;;;2.72;;
52041;SDS011;38052;45.944;13.624;2024-03-02T00:57:37;8.75;;;2.47;;
52041;SDS011;38052;45.944;13.624;2024-03-02T01:00:04;6.97;;;2.30;;
52041;SDS011;38052;45.944;13.624;2024-03-02T01:02:34;5.45;;;2.13;;
52041;SDS011;38052;45.944;13.624;2024-03-02T01:05:01;4.85;;;1.92;;
52041;SDS011;38052;45.944;13.624;2024-03-02T01:07:27;5.57;;;2.60;;
52041;SDS011;38052;45.944;13.624;2024-03-02T01:09:54;5.63;;;2.05;;
52041;SDS011;38052;45.944;13.624;2024-03-02T01:12:20;4.43;;;2.40;;
52041;SDS011;38052;45.944;13.624;2024-03-02T01:14:47;7.75;;;2.92;;
52041;SDS011;38052;45.944;13.624;2024-03-02T01:17:14;5.95;;;2.55;;
52041;SDS011;38052;45.944;13.624;2024-03-02T01:19:41;7.20;;;2.30;;
52041;SDS011;38052;45.944;13.624;2024-03-02T01:22:08;7.97;;;2.22;;
52041;SDS011;38052;45.944;13.624;2024-03-02T01:24:34;5.50;;;1.90;;
52041;SDS011;38052;45.944;13.624;2024-03-02T01:27:01;5.95;;;2.05;;
52041;SDS011;38052;45.944;13.624;2024-03-02T01:29:27;10.65;;;2.10;;
52041;SDS011;38052;45.944;13.624;2024-03-02T01:31:54;7.68;;;2.20;;
52041;SDS011;38052;45.944;13.624;2024-03-02T01:34:20;8.77;;;1.67;;
52041;SDS011;38052;45.944;13.624;2024-03-02T01:36:46;6.05;;;1.67;;
52041;SDS011;38052;45.944;13.624;2024-03-02T01:39:13;7.00;;;2.53;;
52041;SDS011;38052;45.944;13.624;2024-03-02T01:41:39;4.07;;;2.05;;
52041;SDS011;38052;45.944;13.624;2024-03-02T01:44:06;8.35;;;2.50;;
52041;SDS011;38052;45.944;13.624;2024-03-02T01:46:32;6.57;;;2.25;;
52041;SDS011;38052;45.944;13.624;2024-03-02T01:48:59;4.22;;;2.00;;
52041;SDS011;38052;45.944;13.624;2024-03-02T01:51:26;7.55;;;2.83;;
52041;SDS011;38052;45.944;13.624;2024-03-02T01:53:52;5.10;;;1.90;;
52041;SDS011;38052;45.944;13.624;2024-03-02T01:56:19;4.80;;;2.83;;
52041;SDS011;38052;45.944;13.624;2024-03-02T01:58:45;6.30;;;3.20;;
52041;SDS011;38052;45.944;13.624;2024-03-02T02:01:11;7.38;;;3.38;;
52041;SDS011;38052;45.944;13.624;2024-03-02T02:03:38;7.45;;;3.63;;
52041;SDS011;38052;45.944;13.624;2024-03-02T02:06:05;6.03;;;2.60;;
52041;SDS011;38052;45.944;13.624;2024-03-02T02:08:32;7.05;;;2.78;;
52041;SDS011;38052;45.944;13.624;2024-03-02T02:10:58;16.27;;;3.30;;
52041;SDS011;38052;45.944;13.624;2024-03-02T02:13:25;5.35;;;3.15;;
52041;SDS011;38052;45.944;13.624;2024-03-02T02:15:52;6.15;;;2.75;;
52041;SDS011;38052;45.944;13.624;2024-03-02T02:18:18;5.85;;;2.78;;
52041;SDS011;38052;45.944;13.624;2024-03-02T02:20:44;6.95;;;2.95;;
52041;SDS011;38052;45.944;13.624;2024-03-02T02:23:12;6.47;;;2.72;;
52041;SDS011;38052;45.944;13.624;2024-03-02T02:25:38;5.07;;;2.83;;
52041;SDS011;38052;45.944;13.624;2024-03-02T02:28:05;7.88;;;3.50;;
52041;SDS011;38052;45.944;13.624;2024-03-02T02:30:31;12.00;;;3.00;;
52041;SDS011;38052;45.944;13.624;2024-03-02T02:32:58;8.68;;;4.03;;
52041;SDS011;38052;45.944;13.624;2024-03-02T02:35:24;7.72;;;3.63;;
52041;SDS011;38052;45.944;13.624;2024-03-02T02:37:50;7.05;;;3.88;;
52041;SDS011;38052;45.944;13.624;2024-03-02T02:40:18;8.40;;;3.55;;
52041;SDS011;38052;45.944;13.624;2024-03-02T02:42:44;7.95;;;3.38;;
52041;SDS011;38052;45.944;13.624;2024-03-02T02:45:11;10.18;;;2.83;;
52041;SDS011;38052;45.944;13.624;2024-03-02T02:47:40;7.07;;;3.42;;
52041;SDS011;38052;45.944;13.624;2024-03-02T02:50:06;5.40;;;2.97;;
52041;SDS011;38052;45.944;13.624;2024-03-02T02:52:33;6.75;;;3.55;;
52041;SDS011;38052;45.944;13.624;2024-03-02T02:55:01;7.35;;;2.70;;
52041;SDS011;38052;45.944;13.624;2024-03-02T02:57:27;7.22;;;2.78;;
52041;SDS011;38052;45.944;13.624;2024-03-02T02:59:56;5.53;;;2.60;;
52041;SDS011;38052;45.944;13.624;2024-03-02T03:02:22;5.68;;;2.88;;
52041;SDS011;38052;45.944;13.624;2024-03-02T03:04:49;4.38;;;2.50;;
52041;SDS011;38052;45.944;13.624;2024-03-02T03:07:15;4.78;;;2.58;;
52041;SDS011;38052;45.944;13.624;2024-03-02T03:09:42;5.22;;;3.28;;
52041;SDS011;38052;45.944;13.624;2024-03-02T03:12:08;6.15;;;2.95;;
52041;SDS011;38052;45.944;13.624;2024-03-02T03:14:35;8.40;;;2.78;;
52041;SDS011;38052;45.944;13.624;2024-03-02T03:17:01;6.30;;;2.28;;
52041;SDS011;38052;45.944;13.624;2024-03-02T03:19:27;9.48;;;2.63;;
52041;SDS011;38052;45.944;13.624;2024-03-02T03:21:54;7.90;;;3.70;;
52041;SDS011;38052;45.944;13.624;2024-03-02T03:24:21;6.68;;;3.00;;
52041;SDS011;38052;45.944;13.624;2024-03-02T03:26:48;8.63;;;2.90;;
52041;SDS011;38052;45.944;13.624;2024-03-02T03:29:15;7.75;;;2.97;;
52041;SDS011;38052;45.944;13.624;2024-03-02T03:31:42;7.78;;;4.65;;
52041;SDS011;38052;45.944;13.624;2024-03-02T03:34:09;5.00;;;3.55;;
52041;SDS011;38052;45.944;13.624;2024-03-02T03:36:37;7.45;;;2.65;;
52041;SDS011;38052;45.944;13.624;2024-03-02T03:39:04;5.57;;;3.20;;
52041;SDS011;38052;45.944;13.624;2024-03-02T03:41:31;4.35;;;2.72;;
52041;SDS011;38052;45.944;13.624;2024-03-02T03:43:58;8.55;;;3.70;;
52041;SDS011;38052;45.944;13.624;2024-03-02T03:46:24;6.75;;;2.55;;
52041;SDS011;38052;45.944;13.624;2024-03-02T03:48:51;3.33;;;2.25;;
52041;SDS011;38052;45.944;13.624;2024-03-02T03:51:18;5.50;;;2.40;;
52041;SDS011;38052;45.944;13.624;2024-03-02T03:53:44;4.93;;;3.28;;
52041;SDS011;38052;45.944;13.624;2024-03-02T03:56:11;6.97;;;3.20;;
52041;SDS011;38052;45.944;13.624;2024-03-02T03:58:37;5.47;;;2.70;;
52041;SDS011;38052;45.944;13.624;2024-03-02T04:01:04;5.72;;;2.70;;
52041;SDS011;38052;45.944;13.624;2024-03-02T04:03:30;5.30;;;2.80;;
52041;SDS011;38052;45.944;13.624;2024-03-02T04:05:57;7.68;;;3.05;;
52041;SDS011;38052;45.944;13.624;2024-03-02T04:08:24;5.45;;;2.83;;
52041;SDS011;38052;45.944;13.624;2024-03-02T04:10:51;8.77;;;2.72;;
52041;SDS011;38052;45.944;13.624;2024-03-02T04:13:18;5.13;;;3.03;;
52041;SDS011;38052;45.944;13.624;2024-03-02T04:15:44;5.28;;;2.75;;
52041;SDS011;38052;45.944;13.624;2024-03-02T04:18:11;5.25;;;2.63;;
52041;SDS011;38052;45.944;13.624;2024-03-02T04:20:37;5.10;;;3.25;;
52041;SDS011;38052;45.944;13.624;2024-03-02T04:23:03;6.70;;;2.03;;
52041;SDS011;38052;45.944;13.624;2024-03-02T04:25:30;5.68;;;3.42;;
52041;SDS011;38052;45.944;13.624;2024-03-02T04:27:57;4.25;;;2.38;;
52041;SDS011;38052;45.944;13.624;2024-03-02T04:30:23;4.43;;;3.03;;
52041;SDS011;38052;45.944;13.624;2024-03-02T04:32:50;6.45;;;2.20;;
52041;SDS011;38052;45.944;13.624;2024-03-02T04:35:17;4.30;;;2.40;;
52041;SDS011;38052;45.944;13.624;2024-03-02T04:37:43;12.45;;;3.80;;
52041;SDS011;38052;45.944;13.624;2024-03-02T04:40:10;6.30;;;2.38;;
52041;SDS011;38052;45.944;13.624;2024-03-02T04:42:36;5.90;;;2.83;;
52041;SDS011;38052;45.944;13.624;2024-03-02T04:45:03;4.68;;;2.95;;
52041;SDS011;38052;45.944;13.624;2024-03-02T04:47:30;4.63;;;2.17;;
52041;SDS011;38052;45.944;13.624;2024-03-02T04:49:56;7.85;;;2.42;;
52041;SDS011;38052;45.944;13.624;2024-03-02T04:52:22;7.55;;;3.50;;
52041;SDS011;38052;45.944;13.624;2024-03-02T04:54:49;7.45;;;3.55;;
52041;SDS011;38052;45.944;13.624;2024-03-02T04:57:35;7.63;;;3.30;;
52041;SDS011;38052;45.944;13.624;2024-03-02T05:00:01;6.75;;;2.72;;
52041;SDS011;38052;45.944;13.624;2024-03-02T05:02:32;5.63;;;2.83;;
52041;SDS011;38052;45.944;13.624;2024-03-02T05:04:58;7.95;;;3.42;;
52041;SDS011;38052;45.944;13.624;2024-03-02T05:07:24;6.05;;;2.88;;
52041;SDS011;38052;45.944;13.624;2024-03-02T05:09:51;4.47;;;2.17;;
52041;SDS011;38052;45.944;13.624;2024-03-02T05:12:17;5.43;;;2.60;;
52041;SDS011;38052;45.944;13.624;2024-03-02T05:15:15;5.88;;;2.90;;
52041;SDS011;38052;45.944;13.624;2024-03-02T05:17:43;8.52;;;4.05;;
52041;SDS011;38052;45.944;13.624;2024-03-02T05:20:09;6.53;;;3.47;;
52041;SDS011;38052;45.944;13.624;2024-03-02T05:22:36;6.85;;;3.45;;
52041;SDS011;38052;45.944;13.624;2024-03-02T05:25:03;8.55;;;3.63;;
52041;SDS011;38052;45.944;13.624;2024-03-02T05:27:30;11.25;;;4.53;;
52041;SDS011;38052;45.944;13.624;2024-03-02T05:29:57;9.00;;;3.72;;
52041;SDS011;38052;45.944;13.624;2024-03-02T05:32:24;8.63;;;4.30;;
52041;SDS011;38052;45.944;13.624;2024-03-02T05:34:50;5.43;;;3.72;;
52041;SDS011;38052;45.944;13.624;2024-03-02T05:37:17;7.03;;;4.10;;
52041;SDS011;38052;45.944;13.624;2024-03-02T05:39:43;5.80;;;4.07;;
52041;SDS011;38052;45.944;13.624;2024-03-02T05:42:10;9.05;;;4.28;;
52041;SDS011;38052;45.944;13.624;2024-03-02T05:44:36;8.65;;;4.35;;
52041;SDS011;38052;45.944;13.624;2024-03-02T05:47:03;7.70;;;3.50;;
52041;SDS011;38052;45.944;13.624;2024-03-02T05:49:29;8.32;;;4.25;;
52041;SDS011;38052;45.944;13.624;2024-03-02T05:51:56;7.43;;;4.05;;
52041;SDS011;38052;45.944;13.624;2024-03-02T05:54:22;6.32;;;3.90;;
52041;SDS011;38052;45.944;13.624;2024-03-02T05:56:49;11.20;;;4.10;;
52041;SDS011;38052;45.944;13.624;2024-03-02T05:59:15;10.82;;;4.20;;
52041;SDS011;38052;45.944;13.624;2024-03-02T06:01:42;11.32;;;4.50;;
52041;SDS011;38052;45.944;13.624;2024-03-02T06:04:09;13.50;;;3.67;;
52041;SDS011;38052;45.944;13.624;2024-03-02T06:06:36;9.50;;;4.20;;
52041;SDS011;38052;45.944;13.624;2024-03-02T06:09:03;6.03;;;3.63;;
52041;SDS011;38052;45.944;13.624;2024-03-02T06:11:36;5.72;;;3.08;;
52041;SDS011;38052;45.944;13.624;2024-03-02T06:14:05;7.75;;;3.78;;
52041;SDS011;38052;45.944;13.624;2024-03-02T06:16:32;8.48;;;2.60;;
52041;SDS011;38052;45.944;13.624;2024-03-02T06:18:59;6.25;;;3.00;;
52041;SDS011;38052;45.944;13.624;2024-03-02T06:21:26;9.30;;;4.00;;
52041;SDS011;38052;45.944;13.624;2024-03-02T06:23:52;6.68;;;3.30;;
52041;SDS011;38052;45.944;13.624;2024-03-02T06:26:19;8.23;;;4.95;;
52041;SDS011;38052;45.944;13.624;2024-03-02T06:28:45;6.45;;;3.60;;
52041;SDS011;38052;45.944;13.624;2024-03-02T06:31:12;3.83;;;2.67;;
52041;SDS011;38052;45.944;13.624;2024-03-02T06:33:39;4.35;;;3.08;;
52041;SDS011;38052;45.944;13.624;2024-03-02T06:36:06;6.68;;;3.72;;
52041;SDS011;38052;45.944;13.624;2024-03-02T06:38:36;5.63;;;3.30;;
52041;SDS011;38052;45.944;13.624;2024-03-02T06:41:04;7.13;;;3.75;;
52041;SDS011;38052;45.944;13.624;2024-03-02T06:43:31;5.43;;;3.50;;
52041;SDS011;38052;45.944;13.624;2024-03-02T06:45:57;6.70;;;3.88;;
52041;SDS011;38052;45.944;13.624;2024-03-02T06:48:24;6.82;;;4.20;;
52041;SDS011;38052;45.944;13.624;2024-03-02T06:50:50;8.32;;;5.05;;
52041;SDS011;38052;45.944;13.624;2024-03-02T06:53:17;9.13;;;5.13;;
52041;SDS011;38052;45.944;13.624;2024-03-02T06:55:44;7.40;;;3.97;;
52041;SDS011;38052;45.944;13.624;2024-03-02T06:58:11;7.72;;;4.90;;
52041;SDS011;38052;45.944;13.624;2024-03-02T07:00:37;11.65;;;4.57;;
52041;SDS011;38052;45.944;13.624;2024-03-02T07:03:04;9.23;;;5.13;;
52041;SDS011;38052;45.944;13.624;2024-03-02T07:05:31;8.50;;;5.20;;
52041;SDS011;38052;45.944;13.624;2024-03-02T07:07:57;8.07;;;3.75;;
52041;SDS011;38052;45.944;13.624;2024-03-02T07:10:24;6.82;;;4.22;;
52041;SDS011;38052;45.944;13.624;2024-03-02T07:12:50;6.40;;;4.30;;
52041;SDS011;38052;45.944;13.624;2024-03-02T07:15:17;7.22;;;3.85;;
52041;SDS011;38052;45.944;13.624;2024-03-02T07:17:55;8.18;;;3.30;;
52041;SDS011;38052;45.944;13.624;2024-03-02T07:20:21;7.13;;;3.35;;
52041;SDS011;38052;45.944;13.624;2024-03-02T07:22:48;4.88;;;3.17;;
52041;SDS011;38052;45.944;13.624;2024-03-02T07:25:15;13.10;;;4.53;;
52041;SDS011;38052;45.944;13.624;2024-03-02T07:27:41;5.15;;;3.63;;
52041;SDS011;38052;45.944;13.624;2024-03-02T07:30:08;8.40;;;3.22;;
52041;SDS011;38052;45.944;13.624;2024-03-02T07:32:36;5.47;;;3.22;;
52041;SDS011;38052;45.944;13.624;2024-03-02T07:35:02;6.25;;;3.67;;
52041;SDS011;38052;45.944;13.624;2024-03-02T07:37:28;4.53;;;2.85;;
52041;SDS011;38052;45.944;13.624;2024-03-02T07:39:55;8.00;;;4.13;;
52041;SDS011;38052;45.944;13.624;2024-03-02T07:42:22;6.45;;;3.80;;
52041;SDS011;38052;45.944;13.624;2024-03-02T07:44:48;6.72;;;3.95;;
52041;SDS011;38052;45.944;13.624;2024-03-02T07:47:15;6.28;;;3.97;;
52041;SDS011;38052;45.944;13.624;2024-03-02T07:49:41;9.05;;;5.45;;
52041;SDS011;38052;45.944;13.624;2024-03-02T07:52:08;10.65;;;5.55;;
52041;SDS011;38052;45.944;13.624;2024-03-02T07:54:34;13.15;;;6.07;;
52041;SDS011;38052;45.944;13.624;2024-03-02T07:57:01;13.30;;;6.07;;
52041;SDS011;38052;45.944;13.624;2024-03-02T07:59:28;8.13;;;5.68;;
52041;SDS011;38052;45.944;13.624;2024-03-02T08:01:54;7.65;;;4.60;;
52041;SDS011;38052;45.944;13.624;2024-03-02T08:04:20;8.27;;;4.93;;
52041;SDS011;38052;45.944;13.624;2024-03-02T08:06:47;10.00;;;7.22;;
52041;SDS011;38052;45.944;13.624;2024-03-02T08:09:13;11.15;;;7.13;;
52041;SDS011;38052;45.944;13.624;2024-03-02T08:11:40;12.65;;;7.80;;
52041;SDS011;38052;45.944;13.624;2024-03-02T08:14:06;13.55;;;8.65;;
52041;SDS011;38052;45.944;13.624;2024-03-02T08:16:33;9.90;;;7.07;;
52041;SDS011;38052;45.944;13.624;2024-03-02T08:18:59;11.98;;;7.63;;
52041;SDS011;38052;45.944;13.624;2024-03-02T08:21:26;10.82;;;7.35;;
52041;SDS011;38052;45.944;13.624;2024-03-02T08:23:56;8.50;;;6.40;;
52041;SDS011;38052;45.944;13.624;2024-03-02T08:26:23;11.30;;;5.88;;
52041;SDS011;38052;45.944;13.624;2024-03-02T08:28:50;9.30;;;4.68;;
52041;SDS011;38052;45.944;13.624;2024-03-02T08:31:16;7.22;;;4.40;;
52041;SDS011;38052;45.944;13.624;2024-03-02T08:33:43;7.00;;;4.68;;
52041;SDS011;38052;45.944;13.624;2024-03-02T08:36:10;9.43;;;4.82;;
52041;SDS011;38052;45.944;13.624;2024-03-02T08:38:36;10.23;;;4.28;;
52041;SDS011;38052;45.944;13.624;2024-03-02T08:41:02;10.70;;;4.70;;
52041;SDS011;38052;45.944;13.624;2024-03-02T08:43:29;7.72;;;4.28;;
52041;SDS011;38052;45.944;13.624;2024-03-02T08:45:56;8.15;;;4.97;;
52041;SDS011;38052;45.944;13.624;2024-03-02T08:48:22;9.88;;;5.25;;
52041;SDS011;38052;45.944;13.624;2024-03-02T08:50:49;9.80;;;6.25;;
52041;SDS011;38052;45.944;13.624;2024-03-02T08:53:15;7.78;;;5.05;;
52041;SDS011;38052;45.944;13.624;2024-03-02T08:55:47;9.15;;;5.47;;
52041;SDS011;38052;45.944;13.624;2024-03-02T08:58:13;6.57;;;4.30;;
52041;SDS011;38052;45.944;13.624;2024-03-02T09:00:40;8.25;;;4.30;;
52041;SDS011;38052;45.944;13.624;2024-03-02T09:03:07;8.38;;;3.95;;
52041;SDS011;38052;45.944;13.624;2024-03-02T09:05:34;10.23;;;4.45;;
52041;SDS011;38052;45.944;13.624;2024-03-02T09:08:00;8.00;;;4.13;;
52041;SDS011;38052;45.944;13.624;2024-03-02T09:10:28;7.40;;;4.00;;
52041;SDS011;38052;45.944;13.624;2024-03-02T09:12:55;5.38;;;3.60;;
52041;SDS011;38052;45.944;13.624;2024-03-02T09:15:21;8.10;;;4.03;;
52041;SDS011;38052;45.944;13.624;2024-03-02T09:17:47;11.65;;;9.98;;
52041;SDS011;38052;45.944;13.624;2024-03-02T09:20:14;13.52;;;11.98;;
52041;SDS011;38052;45.944;13.624;2024-03-02T09:22:41;9.73;;;7.47;;
52041;SDS011;38052;45.944;13.624;2024-03-02T09:25:08;12.40;;;9.18;;
52041;SDS011;38052;45.944;13.624;2024-03-02T09:27:38;10.77;;;7.90;;
52041;SDS011;38052;45.944;13.624;2024-03-02T09:30:05;7.63;;;5.60;;
52041;SDS011;38052;45.944;13.624;2024-03-02T09:32:38;7.47;;;4.55;;
52041;SDS011;38052;45.944;13.624;2024-03-02T09:35:04;9.95;;;4.55;;
52041;SDS011;38052;45.944;13.624;2024-03-02T09:37:30;4.78;;;3.38;;
52041;SDS011;38052;45.944;13.624;2024-03-02T09:39:57;5.60;;;3.55;;
52041;SDS011;38052;45.944;13.624;2024-03-02T09:42:24;4.97;;;2.72;;
52041;SDS011;38052;45.944;13.624;2024-03-02T09:44:51;7.63;;;4.30;;
52041;SDS011;38052;45.944;13.624;2024-03-02T09:47:17;6.68;;;4.28;;
52041;SDS011;38052;45.944;13.624;2024-03-02T09:49:44;8.05;;;4.05;;
52041;SDS011;38052;45.944;13.624;2024-03-02T09:52:11;7.50;;;4.82;;
52041;SDS011;38052;45.944;13.624;2024-03-02T09:54:37;7.03;;;3.88;;
52041;SDS011;38052;45.944;13.624;2024-03-02T09:57:03;6.38;;;3.17;;
52041;SDS011;38052;45.944;13.624;2024-03-02T09:59:30;8.80;;;2.85;;
52041;SDS011;38052;45.944;13.624;2024-03-02T10:01:57;6.78;;;2.45;;
52041;SDS011;38052;45.944;13.624;2024-03-02T10:04:25;5.72;;;2.50;;
52041;SDS011;38052;45.944;13.624;2024-03-02T10:06:51;7.20;;;2.80;;
52041;SDS011;38052;45.944;13.624;2024-03-02T10:09:27;3.67;;;2.45;;
52041;SDS011;38052;45.944;13.624;2024-03-02T10:12:03;4.55;;;2.53;;
52041;SDS011;38052;45.944;13.624;2024-03-02T10:14:29;4.38;;;2.22;;
52041;SDS011;38052;45.944;13.624;2024-03-02T10:16:56;5.70;;;2.58;;
52041;SDS011;38052;45.944;13.624;2024-03-02T10:19:27;6.45;;;2.85;;
52041;SDS011;38052;45.944;13.624;2024-03-02T10:21:57;4.70;;;2.92;;
52041;SDS011;38052;45.944;13.624;2024-03-02T10:24:24;5.30;;;2.70;;
52041;SDS011;38052;45.944;13.624;2024-03-02T10:26:50;8.07;;;3.78;;
52041;SDS011;38052;45.944;13.624;2024-03-02T10:29:16;8.75;;;3.45;;
52041;SDS011;38052;45.944;13.624;2024-03-02T10:31:44;7.82;;;4.20;;
52041;SDS011;38052;45.944;13.624;2024-03-02T10:34:10;6.93;;;2.30;;
52041;SDS011;38052;45.944;13.624;2024-03-02T10:36:37;7.05;;;2.60;;
52041;SDS011;38052;45.944;13.624;2024-03-02T10:39:07;5.53;;;2.17;;
52041;SDS011;38052;45.944;13.624;2024-03-02T10:41:37;5.80;;;2.80;;
52041;SDS011;38052;45.944;13.624;2024-03-02T10:44:07;6.30;;;2.97;;
52041;SDS011;38052;45.944;13.624;2024-03-02T10:46:35;5.88;;;3.30;;
52041;SDS011;38052;45.944;13.624;2024-03-02T10:49:02;9.05;;;4.13;;
52041;SDS011;38052;45.944;13.624;2024-03-02T10:51:29;4.97;;;2.97;;
52041;SDS011;38052;45.944;13.624;2024-03-02T10:54:01;3.35;;;2.10;;
52041;SDS011;38052;45.944;13.624;2024-03-02T10:56:28;4.47;;;1.30;;
52041;SDS011;38052;45.944;13.624;2024-03-02T10:58:55;6.53;;;1.50;;
52041;SDS011;38052;45.944;13.624;2024-03-02T11:01:24;3.60;;;1.10;;
52041;SDS011;38052;45.944;13.624;2024-03-02T11:03:50;3.75;;;1.10;;
52041;SDS011;38052;45.944;13.624;2024-03-02T11:06:17;3.55;;;0.80;;
52041;SDS011;38052;45.944;13.624;2024-03-02T11:08:44;2.92;;;0.80;;
52041;SDS011;38052;45.944;13.624;2024-03-02T11:11:15;3.58;;;1.30;;
52041;SDS011;38052;45.944;13.624;2024-03-02T11:13:42;2.70;;;1.30;;
52041;SDS011;38052;45.944;13.624;2024-03-02T11:16:16;8.93;;;2.10;;
52041;SDS011;38052;45.944;13.624;2024-03-02T11:18:46;4.35;;;1.40;;
52041;SDS011;38052;45.944;13.624;2024-03-02T11:21:13;4.85;;;1.40;;
52041;SDS011;38052;45.944;13.624;2024-03-02T11:23:40;10.13;;;2.92;;
52041;SDS011;38052;45.944;13.624;2024-03-02T11:26:39;10.05;;;5.32;;
52041;SDS011;38052;45.944;13.624;2024-03-02T11:28:59;2.58;;;1.67;;
52041;SDS011;38052;45.944;13.624;2024-03-02T11:31:51;1.80;;;1.00;;
52041;SDS011;38052;45.944;13.624;2024-03-02T11:34:27;3.30;;;1.65;;
52041;SDS011;38052;45.944;13.624;2024-03-02T11:36:54;3.28;;;1.15;;
52041;SDS011;38052;45.944;13.624;2024-03-02T11:39:21;3.63;;;0.93;;
52041;SDS011;38052;45.944;13.624;2024-03-02T11:41:47;3.35;;;1.92;;
52041;SDS011;38052;45.944;13.624;2024-03-02T11:44:14;5.57;;;1.40;;
52041;SDS011;38052;45.944;13.624;2024-03-02T11:46:41;1.85;;;1.00;;
52041;SDS011;38052;45.944;13.624;2024-03-02T11:49:07;2.08;;;1.13;;
52041;SDS011;38052;45.944;13.624;2024-03-02T11:51:34;3.25;;;2.05;;
52041;SDS011;38052;45.944;13.624;2024-03-02T11:54:01;2.33;;;1.40;;
52041;SDS011;38052;45.944;13.624;2024-03-02T11:56:28;3.90;;;0.98;;
52041;SDS011;38052;45.944;13.624;2024-03-02T11:58:57;3.55;;;1.38;;
52041;SDS011;38052;45.944;13.624;2024-03-02T12:01:23;1.80;;;0.60;;
52041;SDS011;38052;45.944;13.624;2024-03-02T12:03:49;2.17;;;1.33;;
52041;SDS011;38052;45.944;13.624;2024-03-02T12:06:17;2.92;;;1.27;;
52041;SDS011;38052;45.944;13.624;2024-03-02T12:08:46;2.17;;;0.93;;
52041;SDS011;38052;45.944;13.624;2024-03-02T12:11:13;3.45;;;0.80;;
52041;SDS011;38052;45.944;13.624;2024-03-02T12:13:40;3.10;;;1.10;;
52041;SDS011;38052;45.944;13.624;2024-03-02T12:16:07;2.45;;;0.90;;
52041;SDS011;38052;45.944;13.624;2024-03-02T12:18:33;2.30;;;0.80;;
52041;SDS011;38052;45.944;13.624;2024-03-02T12:21:00;0.88;;;0.30;;
52041;SDS011;38052;45.944;13.624;2024-03-02T12:23:29;5.63;;;3.05;;
52041;SDS011;38052;45.944;13.624;2024-03-02T12:25:55;1.73;;;0.50;;
52041;SDS011;38052;45.944;13.624;2024-03-02T12:28:21;2.60;;;0.55;;
52041;SDS011;38052;45.944;13.624;2024-03-02T12:30:47;1.05;;;0.40;;
52041;SDS011;38052;45.944;13.624;2024-03-02T12:33:14;1.80;;;0.30;;
52041;SDS011;38052;45.944;13.624;2024-03-02T12:35:40;2.55;;;0.50;;
52041;SDS011;38052;45.944;13.624;2024-03-02T12:38:07;0.88;;;0.22;;
52041;SDS011;38052;45.944;13.624;2024-03-02T12:40:34;1.42;;;0.30;;
52041;SDS011;38052;45.944;13.624;2024-03-02T12:43:02;1.20;;;0.30;;
52041;SDS011;38052;45.944;13.624;2024-03-02T12:45:29;1.27;;;0.20;;
52041;SDS011;38052;45.944;13.624;2024-03-02T12:47:56;1.65;;;0.50;;
52041;SDS011;38052;45.944;13.624;2024-03-02T12:50:22;1.77;;;0.20;;
52041;SDS011;38052;45.944;13.624;2024-03-02T12:52:52;1.60;;;0.50;;
52041;SDS011;38052;45.944;13.624;2024-03-02T12:55:19;2.33;;;0.55;;
52041;SDS011;38052;45.944;13.624;2024-03-02T12:57:46;3.97;;;0.50;;
52041;SDS011;38052;45.944;13.624;2024-03-02T13:00:13;2.88;;;0.50;;
52041;SDS011;38052;45.944;13.624;2024-03-02T13:02:39;1.23;;;0.50;;
52041;SDS011;38052;45.944;13.624;2024-03-02T13:05:07;1.90;;;0.40;;
52041;SDS011;38052;45.944;13.624;2024-03-02T13:07:36;2.17;;;0.30;;
52041;SDS011;38052;45.944;13.624;2024-03-02T13:10:03;1.33;;;0.35;;
52041;SDS011;38052;45.944;13.624;2024-03-02T13:12:29;6.53;;;0.80;;
52041;SDS011;38052;45.944;13.624;2024-03-02T13:14:57;1.83;;;0.40;;
52041;SDS011;38052;45.944;13.624;2024-03-02T13:17:23;3.70;;;0.55;;
52041;SDS011;38052;45.944;13.624;2024-03-02T13:19:59;1.50;;;0.50;;
52041;SDS011;38052;45.944;13.624;2024-03-02T13:22:26;3.80;;;0.30;;
52041;SDS011;38052;45.944;13.624;2024-03-02T13:24:53;3.50;;;0.55;;
52041;SDS011;38052;45.944;13.624;2024-03-02T13:27:20;2.20;;;0.47;;
52041;SDS011;38052;45.944;13.624;2024-03-02T13:29:47;1.63;;;0.30;;
52041;SDS011;38052;45.944;13.624;2024-03-02T13:32:14;2.38;;;0.82;;
52041;SDS011;38052;45.944;13.624;2024-03-02T13:34:40;4.40;;;0.65;;
52041;SDS011;38052;45.944;13.624;2024-03-02T13:37:07;3.72;;;1.10;;
52041;SDS011;38052;45.944;13.624;2024-03-02T13:39:33;4.32;;;1.20;;
52041;SDS011;38052;45.944;13.624;2024-03-02T13:42:06;3.72;;;1.33;;
52041;SDS011;38052;45.944;13.624;2024-03-02T13:44:33;3.10;;;1.20;;
52041;SDS011;38052;45.944;13.624;2024-03-02T13:47:02;2.67;;;1.02;;
52041;SDS011;38052;45.944;13.624;2024-03-02T13:49:29;3.75;;;1.17;;
52041;SDS011;38052;45.944;13.624;2024-03-02T13:52:00;4.45;;;2.50;;
52041;SDS011;38052;45.944;13.624;2024-03-02T13:54:28;7.32;;;2.72;;
52041;SDS011;38052;45.944;13.624;2024-03-02T13:56:55;10.80;;;4.90;;
52041;SDS011;38052;45.944;13.624;2024-03-02T13:59:22;8.80;;;4.97;;
52041;SDS011;38052;45.944;13.624;2024-03-02T14:01:49;4.22;;;1.70;;
52041;SDS011;38052;45.944;13.624;2024-03-02T14:04:16;2.20;;;0.70;;
52041;SDS011;38052;45.944;13.624;2024-03-02T14:06:43;8.02;;;1.17;;
52041;SDS011;38052;45.944;13.624;2024-03-02T14:09:09;3.08;;;1.00;;
52041;SDS011;38052;45.944;13.624;2024-03-02T14:11:37;4.28;;;1.05;;
52041;SDS011;38052;45.944;13.624;2024-03-02T14:14:03;3.92;;;0.95;;
52041;SDS011;38052;45.944;13.624;2024-03-02T14:16:30;2.38;;;0.68;;
52041;SDS011;38052;45.944;13.624;2024-03-02T14:18:56;2.35;;;1.02;;
52041;SDS011;38052;45.944;13.624;2024-03-02T14:21:24;3.58;;;0.77;;
52041;SDS011;38052;45.944;13.624;2024-03-02T14:23:50;2.58;;;1.20;;
52041;SDS011;38052;45.944;13.624;2024-03-02T14:26:17;3.00;;;0.77;;
52041;SDS011;38052;45.944;13.624;2024-03-02T14:28:44;2.33;;;0.55;;
52041;SDS011;38052;45.944;13.624;2024-03-02T14:31:11;3.42;;;0.80;;
52041;SDS011;38052;45.944;13.624;2024-03-02T14:33:37;3.65;;;1.67;;
52041;SDS011;38052;45.944;13.624;2024-03-02T14:36:03;3.47;;;2.05;;